createdAt,value
2019-04-05T00:00:55.656Z,100079.88
2019-04-05T00:03:25.473Z,100082.47
2019-04-05T00:05:55.275Z,100081.34
2019-04-05T00:08:26.177Z,100087.48
2019-04-05T00:10:56.286Z,100086.53
2019-04-05T00:13:26.444Z,100084.22
2019-04-05T00:15:56.681Z,100083.66
2019-04-05T00:18:26.536Z,100081.81
2019-04-05T00:20:56.682Z,100078.66
2019-04-05T00:23:26.592Z,100081.64
2019-04-05T00:25:58.201Z,100085.52
2019-04-05T00:28:28.193Z,100092.21
2019-04-05T00:30:58.307Z,100081.73
2019-04-05T00:33:28.224Z,100080.89
2019-04-05T00:36:02.629Z,100080.05
2019-04-05T00:38:32.457Z,100087.02
2019-04-05T00:41:02.294Z,100092.77
2019-04-05T00:43:33.544Z,100095.72
2019-04-05T00:46:03.571Z,100100.35
2019-04-05T00:48:33.432Z,100111.58
2019-04-05T00:51:04.024Z,100109.27
2019-04-05T00:53:34.314Z,100114.45
2019-04-05T00:56:05.773Z,100114.36
2019-04-05T00:58:35.608Z,100109.52
2019-04-05T01:01:06.183Z,100116.66
2019-04-05T01:03:35.992Z,100116.66
2019-04-05T01:06:06.314Z,100099.23
2019-04-05T01:08:36.199Z,100099.23
2019-04-05T01:11:06.167Z,100099.98
2019-04-05T01:13:37.982Z,100101.11
2019-04-05T01:16:08.239Z,100085.98
2019-04-05T01:18:38.058Z,100085.91
2019-04-05T01:21:10.942Z,100084.87
2019-04-05T01:23:41.206Z,100076.64
2019-04-05T01:26:12.726Z,100071.27
2019-04-05T01:28:42.732Z,100079.23
2019-04-05T01:31:12.990Z,100083.69
2019-04-05T01:33:42.874Z,100098.59
2019-04-05T01:36:12.955Z,100100.92
2019-04-05T01:38:42.847Z,100103.12
2019-04-05T01:41:12.884Z,100112.40
2019-04-05T01:43:43.205Z,100121.31
2019-04-05T01:46:13.561Z,100123.36
2019-04-05T01:48:43.370Z,100124.82
2019-04-05T01:51:14.437Z,100124.73
2019-04-05T01:53:44.534Z,100123.59
2019-04-05T01:56:14.733Z,100123.59
2019-04-05T01:58:44.690Z,100116.20
2019-04-05T02:01:15.166Z,100112.50
2019-04-05T02:03:45.099Z,100113.59
2019-04-05T02:06:15.609Z,100112.23
2019-04-05T02:08:45.848Z,100106.55
2019-04-05T02:11:15.824Z,100113.24
2019-04-05T02:13:45.772Z,100111.48
2019-04-05T02:16:15.970Z,100108.89
2019-04-05T02:18:46.178Z,100109.08
2019-04-05T02:21:16.353Z,100109.08
2019-04-05T02:23:46.378Z,100111.28
2019-04-05T02:26:16.677Z,100114.07
2019-04-05T02:28:47.142Z,100129.70
2019-04-05T02:31:17.553Z,100133.24
2019-04-05T02:33:47.538Z,100140.28
2019-04-05T02:36:18.374Z,100149.81
2019-04-05T02:38:48.248Z,100155.10
2019-04-05T02:41:19.313Z,100158.70
2019-04-05T02:43:51.634Z,100165.38
2019-04-05T02:46:24.332Z,100166.68
2019-04-05T02:48:55.824Z,100157.66
2019-04-05T02:51:28.203Z,100153.71
2019-04-05T02:53:59.986Z,100154.45
2019-04-05T02:56:31.162Z,100147.68
2019-04-05T02:59:02.207Z,100151.02
2019-04-05T03:01:34.975Z,100147.03
2019-04-05T03:04:05.736Z,100144.72
2019-04-05T03:06:35.973Z,100147.61
2019-04-05T03:09:07.297Z,100147.97
2019-04-05T03:11:39.497Z,100152.25
2019-04-05T03:14:11.324Z,100156.50
2019-04-05T03:16:44.177Z,100161.23
2019-04-05T03:19:20.861Z,100161.52
2019-04-05T03:21:53.814Z,100151.05
2019-04-05T03:24:27.342Z,100154.84
2019-04-05T03:27:05.120Z,100142.80
2019-04-05T03:29:35.586Z,100153.19
2019-04-05T03:32:07.137Z,100149.36
2019-04-05T03:34:35.791Z,100143.61
2019-04-05T03:37:04.617Z,100152.24
2019-04-05T03:39:33.233Z,100154.09
2019-04-05T03:42:02.108Z,100152.70
2019-04-05T03:44:32.493Z,100146.14
2019-04-05T03:47:02.889Z,100142.42
2019-04-05T03:49:34.584Z,100139.92
2019-04-05T03:52:07.763Z,100143.17
2019-04-05T03:54:37.853Z,100139.25
2019-04-05T03:57:08.787Z,100143.59
2019-04-05T03:59:38.854Z,100143.98
2019-04-05T04:02:09.052Z,100148.33
2019-04-05T04:04:38.919Z,100148.33
2019-04-05T04:07:08.925Z,100141.36
2019-04-05T04:09:39.223Z,100150.92
2019-04-05T04:12:09.128Z,100159.05
2019-04-05T04:14:40.176Z,100157.21
2019-04-05T04:17:13.409Z,100152.28
2019-04-05T04:19:44.348Z,100153.52
2019-04-05T04:22:31.200Z,100152.58
2019-04-05T04:25:01.745Z,100152.58
2019-04-05T04:27:32.111Z,100157.31
2019-04-05T04:30:02.577Z,100154.81
2019-04-05T04:32:34.248Z,100161.36
2019-04-05T04:35:06.563Z,100161.36
2019-04-05T04:37:36.531Z,100164.64
2019-04-05T04:40:07.266Z,100169.08
2019-04-05T04:42:37.784Z,100175.52
2019-04-05T04:45:12.294Z,100179.32
2019-04-05T04:47:40.146Z,100189.15
2019-04-05T04:50:12.280Z,100191.67
2019-04-05T04:52:43.037Z,100186.20
2019-04-05T04:55:14.200Z,100185.94
2019-04-05T04:57:44.415Z,100186.39
2019-04-05T05:00:14.692Z,100189.15
2019-04-05T05:02:45.421Z,100189.83
2019-04-05T05:05:14.203Z,100188.53
2019-04-05T05:07:42.638Z,100188.59
2019-04-05T05:10:11.391Z,100180.00
2019-04-05T05:12:40.041Z,100177.57
2019-04-05T05:15:12.683Z,100176.72
2019-04-05T05:17:43.171Z,100171.53
2019-04-05T05:20:13.869Z,100172.73
2019-04-05T05:22:43.976Z,100177.56
2019-04-05T05:25:14.635Z,100173.28
2019-04-05T05:27:45.218Z,100174.03
2019-04-05T05:30:15.121Z,100182.11
2019-04-05T05:32:45.151Z,100179.26
2019-04-05T05:35:15.529Z,100186.48
2019-04-05T05:37:45.688Z,100192.58
2019-04-05T05:40:16.606Z,100197.67
2019-04-05T05:42:46.496Z,100202.41
2019-04-05T05:45:17.051Z,100200.91
2019-04-05T05:47:52.226Z,100205.74
2019-04-05T05:50:19.031Z,100210.45
2019-04-05T05:52:49.592Z,100220.01
2019-04-05T05:55:20.749Z,100217.97
2019-04-05T05:57:54.336Z,100220.41
2019-04-05T06:00:24.782Z,100231.44
2019-04-05T06:02:54.616Z,100223.47
2019-04-05T06:05:24.572Z,100232.84
2019-04-05T06:07:54.481Z,100227.09
2019-04-05T06:10:24.944Z,100230.99
2019-04-05T06:12:54.760Z,100227.30
2019-04-05T06:15:24.564Z,100230.19
2019-04-05T06:18:04.498Z,100229.73
2019-04-05T06:20:26.449Z,100227.75
2019-04-05T06:22:56.507Z,100229.34
2019-04-05T06:25:26.424Z,100234.53
2019-04-05T06:27:59.765Z,100234.44
2019-04-05T06:30:29.153Z,100239.36
2019-04-05T06:33:00.310Z,100240.11
2019-04-05T06:35:30.289Z,100238.36
2019-04-05T06:38:00.287Z,100244.11
2019-04-05T06:40:40.227Z,100236.25
2019-04-05T06:43:01.925Z,100225.88
2019-04-05T06:45:32.283Z,100225.32
2019-04-05T06:48:02.399Z,100228.47
2019-04-05T06:50:32.420Z,100228.62
2019-04-05T06:53:02.270Z,100230.13
2019-04-05T06:55:32.354Z,100228.83
2019-04-05T06:58:02.641Z,100229.92
2019-04-05T07:00:32.656Z,100227.72
2019-04-05T07:03:02.481Z,100222.44
2019-04-05T07:05:32.617Z,100223.28
2019-04-05T07:08:02.770Z,100232.72
2019-04-05T07:10:32.582Z,100229.57
2019-04-05T07:13:02.658Z,100230.77
2019-04-05T07:15:32.489Z,100229.31
2019-04-05T07:18:02.294Z,100230.96
2019-04-05T07:20:32.103Z,100233.84
2019-04-05T07:23:01.914Z,100235.47
2019-04-05T07:25:31.738Z,100239.56
2019-04-05T07:28:01.705Z,100240.05
2019-04-05T07:30:32.730Z,100244.39
2019-04-05T07:33:03.001Z,100243.19
2019-04-05T07:35:34.171Z,100241.80
2019-04-05T07:38:05.760Z,100245.42
2019-04-05T07:40:34.306Z,100248.21
2019-04-05T07:43:02.734Z,100245.97
2019-04-05T07:45:31.165Z,100243.47
2019-04-05T07:47:59.595Z,100247.46
2019-04-05T07:50:28.124Z,100244.88
2019-04-05T07:52:57.041Z,100250.91
2019-04-05T07:55:26.887Z,100254.89
2019-04-05T07:57:56.771Z,100256.77
2019-04-05T08:00:51.477Z,100246.38
2019-04-05T08:03:22.435Z,100259.36
2019-04-05T08:05:54.303Z,100253.97
2019-04-05T08:08:37.077Z,100255.09
2019-04-05T08:11:08.525Z,100258.42
2019-04-05T08:13:41.565Z,100259.17
2019-04-05T08:16:11.684Z,100260.91
2019-04-05T08:18:41.601Z,100256.45
2019-04-05T08:21:11.723Z,100257.37
2019-04-05T08:23:42.334Z,100257.37
2019-04-05T08:26:12.434Z,100258.92
2019-04-05T08:28:42.592Z,100251.48
2019-04-05T08:31:14.519Z,100255.17
2019-04-05T08:33:44.130Z,100255.73
2019-04-05T08:36:14.239Z,100255.06
2019-04-05T08:38:44.096Z,100259.06
2019-04-05T08:41:15.152Z,100258.96
2019-04-05T08:43:47.194Z,100255.34
2019-04-05T08:46:17.791Z,100252.91
2019-04-05T08:48:47.806Z,100253.53
2019-04-05T08:51:17.584Z,100258.59
2019-04-05T08:53:47.712Z,100253.03
2019-04-05T08:56:18.647Z,100259.77
2019-04-05T08:58:48.464Z,100260.40
2019-04-05T09:01:18.567Z,100264.23
2019-04-05T09:03:48.597Z,100264.96
2019-04-05T09:06:18.696Z,100264.13
2019-04-05T09:08:48.493Z,100261.52
2019-04-05T09:11:18.570Z,100260.61
2019-04-05T09:13:49.814Z,100260.61
2019-04-05T09:16:19.649Z,100262.30
2019-04-05T09:18:49.757Z,100270.11
2019-04-05T09:21:19.652Z,100268.70
2019-04-05T09:23:48.071Z,100264.81
2019-04-05T09:26:17.678Z,100267.45
2019-04-05T09:28:46.564Z,100269.51
2019-04-05T09:31:16.594Z,100270.80
2019-04-05T09:33:46.422Z,100272.45
2019-04-05T09:36:16.775Z,100265.02
2019-04-05T09:38:46.888Z,100264.73
2019-04-05T09:41:16.846Z,100259.39
2019-04-05T09:43:46.799Z,100258.28
2019-04-05T09:46:16.896Z,100257.16
2019-04-05T09:48:46.700Z,100254.89
2019-04-05T09:51:16.510Z,100256.75
2019-04-05T09:53:46.333Z,100256.75
2019-04-05T09:56:16.463Z,100258.46
2019-04-05T09:58:46.630Z,100262.19
2019-04-05T10:01:16.747Z,100257.28
2019-04-05T10:03:46.705Z,100257.71
2019-04-05T10:06:16.899Z,100249.01
2019-04-05T10:08:46.744Z,100255.17
2019-04-05T10:11:16.691Z,100255.17
2019-04-05T10:13:46.571Z,100252.80
2019-04-05T10:16:16.447Z,100251.48
2019-04-05T10:18:47.205Z,100254.70
2019-04-05T10:21:18.256Z,100254.02
2019-04-05T10:23:48.187Z,100256.67
2019-04-05T10:26:18.286Z,100250.89
2019-04-05T10:28:48.336Z,100253.87
2019-04-05T10:31:18.679Z,100250.70
2019-04-05T10:33:49.595Z,100257.78
2019-04-05T10:36:20.177Z,100259.20
2019-04-05T10:38:50.068Z,100257.90
2019-04-05T10:41:22.792Z,100257.17
2019-04-05T10:43:51.448Z,100256.28
2019-04-05T10:46:21.474Z,100254.97
2019-04-05T10:48:51.471Z,100260.69
2019-04-05T10:51:21.779Z,100267.52
2019-04-05T10:53:51.984Z,100267.17
2019-04-05T10:56:21.795Z,100268.56
2019-04-05T10:58:51.619Z,100260.25
2019-04-05T11:01:21.738Z,100260.41
2019-04-05T11:03:51.562Z,100261.06
2019-04-05T11:06:21.833Z,100262.75
2019-04-05T11:08:51.676Z,100260.56
2019-04-05T11:11:21.781Z,100257.16
2019-04-05T11:13:51.625Z,100257.80
2019-04-05T11:16:23.051Z,100264.20
2019-04-05T11:18:53.149Z,100264.66
2019-04-05T11:21:22.976Z,100260.22
2019-04-05T11:23:53.612Z,100260.22
2019-04-05T11:26:24.530Z,100268.04
2019-04-05T11:28:54.359Z,100265.20
2019-04-05T11:31:24.478Z,100255.97
2019-04-05T11:33:54.934Z,100263.83
2019-04-05T11:36:25.409Z,100265.55
2019-04-05T11:38:56.863Z,100261.80
2019-04-05T11:41:28.327Z,100254.47
2019-04-05T11:44:00.832Z,100261.98
2019-04-05T11:46:32.723Z,100257.88
2019-04-05T11:49:04.466Z,100251.98
2019-04-05T11:51:34.548Z,100253.16
2019-04-05T11:54:05.862Z,100248.79
2019-04-05T11:56:35.691Z,100252.47
2019-04-05T11:59:08.960Z,100249.40
2019-04-05T12:01:49.575Z,100252.42
2019-04-05T12:04:19.563Z,100248.62
2019-04-05T12:06:51.776Z,100251.02
2019-04-05T12:09:20.928Z,100250.09
2019-04-05T12:11:50.743Z,100250.36
2019-04-05T12:14:30.045Z,100247.90
2019-04-05T12:16:53.163Z,100246.16
2019-04-05T12:19:23.286Z,100247.53
2019-04-05T12:21:53.254Z,100243.47
2019-04-05T12:24:23.203Z,100241.70
2019-04-05T12:26:53.312Z,100246.24
2019-04-05T12:29:22.734Z,100248.33
2019-04-05T12:31:53.405Z,100245.97
2019-04-05T12:34:22.397Z,100245.09
2019-04-05T12:36:52.694Z,100242.72
2019-04-05T12:39:21.345Z,100240.52
2019-04-05T12:41:50.108Z,100240.28
2019-04-05T12:44:18.682Z,100234.20
2019-04-05T12:46:48.590Z,100240.11
2019-04-05T12:49:18.669Z,100232.19
2019-04-05T12:51:48.499Z,100234.14
2019-04-05T12:54:19.659Z,100230.70
2019-04-05T12:56:49.667Z,100230.50
2019-04-05T12:59:19.702Z,100230.52
2019-04-05T13:01:49.540Z,100222.94
2019-04-05T13:04:20.630Z,100228.08
2019-04-05T13:06:52.950Z,100235.70
2019-04-05T13:09:23.549Z,100231.78
2019-04-05T13:11:57.296Z,100223.57
2019-04-05T13:14:26.972Z,100225.47
2019-04-05T13:16:57.132Z,100220.73
2019-04-05T13:19:28.513Z,100221.67
2019-04-05T13:22:00.670Z,100219.86
2019-04-05T13:24:30.370Z,100221.16
2019-04-05T13:27:02.093Z,100216.98
2019-04-05T13:29:32.197Z,100213.91
2019-04-05T13:32:02.024Z,100218.14
2019-04-05T13:34:31.839Z,100213.52
2019-04-05T13:37:02.008Z,100210.77
2019-04-05T13:39:31.794Z,100205.55
2019-04-05T13:42:02.474Z,100210.66
2019-04-05T13:44:32.553Z,100202.83
2019-04-05T13:47:01.199Z,100209.73
2019-04-05T13:49:29.637Z,100199.66
2019-04-05T13:51:58.206Z,100196.47
2019-04-05T13:54:28.398Z,100194.06
2019-04-05T13:56:58.255Z,100193.86
2019-04-05T13:59:28.526Z,100194.11
2019-04-05T14:02:06.085Z,100195.41
2019-04-05T14:04:30.950Z,100193.89
2019-04-05T14:07:03.581Z,100195.54
2019-04-05T14:09:32.614Z,100198.87
2019-04-05T14:12:02.506Z,100192.46
2019-04-05T14:14:32.331Z,100186.14
2019-04-05T14:17:02.226Z,100181.12
2019-04-05T14:19:32.548Z,100184.33
2019-04-05T14:22:08.290Z,100185.04
2019-04-05T14:24:34.322Z,100183.60
2019-04-05T14:27:04.308Z,100181.67
2019-04-05T14:29:34.119Z,100181.79
2019-04-05T14:32:19.852Z,100175.97
2019-04-05T14:34:37.260Z,100170.62
2019-04-05T14:37:08.363Z,100177.61
2019-04-05T14:39:38.416Z,100177.61
2019-04-05T14:42:09.892Z,100177.14
2019-04-05T14:44:40.139Z,100179.50
2019-04-05T14:47:10.266Z,100180.09
2019-04-05T14:49:40.334Z,100180.09
2019-04-05T14:52:10.546Z,100172.97
2019-04-05T14:54:43.164Z,100175.66
2019-04-05T14:57:12.565Z,100173.84
2019-04-05T14:59:42.435Z,100163.52
2019-04-05T15:02:12.560Z,100167.18
2019-04-05T15:04:42.576Z,100167.06
2019-04-05T15:07:12.718Z,100163.27
2019-04-05T15:09:42.525Z,100163.27
2019-04-05T15:12:12.503Z,100160.04
2019-04-05T15:14:42.351Z,100160.94
2019-04-05T15:17:12.464Z,100159.95
2019-04-05T15:19:42.480Z,100161.27
2019-04-05T15:22:12.605Z,100158.77
2019-04-05T15:24:44.585Z,100150.95
2019-04-05T15:27:14.751Z,100161.84
2019-04-05T15:29:44.560Z,100157.67
2019-04-05T15:32:14.568Z,100156.48
2019-04-05T15:34:44.649Z,100156.95
2019-04-05T15:37:16.238Z,100153.03
2019-04-05T15:39:47.155Z,100154.32
2019-04-05T15:42:16.958Z,100154.38
2019-04-05T15:44:46.979Z,100150.47
2019-04-05T15:47:16.788Z,100145.61
2019-04-05T15:49:46.585Z,100146.05
2019-04-05T15:52:19.079Z,100142.14
2019-04-05T15:54:48.494Z,100140.20
2019-04-05T15:57:18.616Z,100135.94
2019-04-05T15:59:48.598Z,100132.49
2019-04-05T16:02:19.050Z,100130.75
2019-04-05T16:04:49.010Z,100123.30
2019-04-05T16:07:18.899Z,100126.11
2019-04-05T16:09:48.788Z,100125.53
2019-04-05T16:12:18.701Z,100127.30
2019-04-05T16:14:48.521Z,100131.49
2019-04-05T16:17:18.632Z,100123.44
2019-04-05T16:19:48.580Z,100123.44
2019-04-05T16:22:30.635Z,100123.65
2019-04-05T16:24:50.168Z,100121.59
2019-04-05T16:27:20.446Z,100121.59
2019-04-05T16:29:50.293Z,100126.55
2019-04-05T16:32:22.056Z,100130.47
2019-04-05T16:34:51.866Z,100135.53
2019-04-05T16:37:21.783Z,100128.87
2019-04-05T16:39:51.692Z,100132.64
2019-04-05T16:42:22.055Z,100133.95
2019-04-05T16:44:51.863Z,100132.03
2019-04-05T16:47:21.920Z,100133.34
2019-04-05T16:49:51.735Z,100131.31
2019-04-05T16:52:21.773Z,100136.78
2019-04-05T16:54:51.576Z,100137.25
2019-04-05T16:57:21.696Z,100133.45
2019-04-05T16:59:51.692Z,100133.45
2019-04-05T17:02:21.581Z,100139.59
2019-04-05T17:04:51.386Z,100137.94
2019-04-05T17:07:21.709Z,100133.80
2019-04-05T17:09:51.509Z,100133.08
2019-04-05T17:12:21.721Z,100136.41
2019-04-05T17:14:51.588Z,100135.68
2019-04-05T17:17:21.740Z,100143.02
2019-04-05T17:19:52.730Z,100147.81
2019-04-05T17:22:22.879Z,100144.33
2019-04-05T17:24:53.065Z,100148.36
2019-04-05T17:27:23.419Z,100149.66
2019-04-05T17:29:53.431Z,100149.73
2019-04-05T17:32:23.684Z,100148.05
2019-04-05T17:34:53.623Z,100148.13
2019-04-05T17:37:26.495Z,100139.13
2019-04-05T17:39:55.600Z,100138.94
2019-04-05T17:42:25.566Z,100142.84
2019-04-05T17:44:55.646Z,100135.37
2019-04-05T17:47:25.548Z,100137.86
2019-04-05T17:49:55.517Z,100133.15
2019-04-05T17:52:25.466Z,100133.46
2019-04-05T17:54:55.865Z,100135.91
2019-04-05T17:57:25.676Z,100142.42
2019-04-05T17:59:55.671Z,100134.15
2019-04-05T18:02:26.264Z,100136.95
2019-04-05T18:04:56.345Z,100138.67
2019-04-05T18:07:26.505Z,100143.39
2019-04-05T18:09:56.415Z,100145.65
2019-04-05T18:14:55.651Z,100156.34
2019-04-05T18:17:25.480Z,100161.08
2019-04-05T18:19:55.382Z,100157.38
2019-04-05T18:22:25.366Z,100154.30
2019-04-05T18:24:55.421Z,100161.08
2019-04-05T18:27:25.606Z,100160.62
2019-04-05T18:29:55.605Z,100167.17
2019-04-05T18:32:25.423Z,100162.54
2019-04-05T18:34:55.474Z,100168.23
2019-04-05T18:37:26.442Z,100174.48
2019-04-05T18:39:57.526Z,100178.39
2019-04-05T18:42:27.434Z,100184.52
2019-04-05T18:44:57.546Z,100188.42
2019-04-05T18:47:28.048Z,100185.98
2019-04-05T18:50:03.207Z,100184.48
2019-04-05T18:52:29.669Z,100191.73
2019-04-05T18:54:59.548Z,100192.65
2019-04-05T18:57:29.847Z,100190.69
2019-04-05T18:59:59.658Z,100188.91
2019-04-05T19:02:29.922Z,100190.39
2019-04-05T19:04:59.738Z,100196.63
2019-04-05T19:07:29.623Z,100189.02
2019-04-05T19:10:00.027Z,100189.96
2019-04-05T19:12:29.884Z,100196.94
2019-04-05T19:14:59.818Z,100196.36
2019-04-05T19:17:29.882Z,100201.92
2019-04-05T19:19:59.683Z,100203.49
2019-04-05T19:22:28.695Z,100204.72
2019-04-05T19:24:58.756Z,100209.73
2019-04-05T19:27:28.558Z,100216.81
2019-04-05T19:29:58.750Z,100211.82
2019-04-05T19:50:01.896Z,100214.88
2019-04-05T19:52:30.322Z,100213.14
2019-04-05T19:55:00.426Z,100210.48
2019-04-05T19:57:30.450Z,100209.48
2019-04-05T20:00:00.531Z,100212.92
2019-04-05T20:02:30.358Z,100207.37
2019-04-05T20:05:00.238Z,100204.20
2019-04-05T20:07:30.254Z,100205.84
2019-04-05T20:10:00.353Z,100205.39
2019-04-05T20:12:30.438Z,100205.28
2019-04-05T20:15:00.240Z,100203.36
2019-04-05T20:17:30.057Z,100201.89
2019-04-05T20:19:59.874Z,100202.73
2019-04-05T20:22:30.002Z,100203.19
2019-04-05T20:24:59.802Z,100200.94
2019-04-05T20:27:29.617Z,100206.23
2019-04-05T20:29:59.445Z,100199.97
2019-04-05T20:32:29.541Z,100203.69
2019-04-05T20:34:59.605Z,100206.75
2019-04-05T20:37:29.418Z,100207.77
2019-04-05T20:39:59.511Z,100205.73
2019-04-05T20:42:29.598Z,100205.01
2019-04-05T20:44:59.402Z,100204.44
2019-04-05T20:47:28.880Z,100207.61
2019-04-05T20:49:57.815Z,100211.73
2019-04-05T20:52:27.843Z,100213.22
2019-04-05T20:54:58.107Z,100214.52
2019-04-05T20:57:28.477Z,100211.29
2019-04-05T20:59:58.598Z,100213.61
2019-04-05T21:02:28.401Z,100209.87
2019-04-05T21:04:59.562Z,100213.44
2019-04-05T21:07:29.506Z,100207.22
2019-04-05T21:09:59.599Z,100206.70
2019-04-05T21:12:30.380Z,100218.97
2019-04-05T21:15:00.243Z,100216.37
2019-04-05T21:17:30.327Z,100215.71
2019-04-05T21:20:00.405Z,100212.09
2019-04-05T21:22:30.470Z,100215.71
2019-04-05T21:25:00.509Z,100212.55
2019-04-05T21:27:30.572Z,100211.92
2019-04-05T21:30:00.420Z,100212.19
2019-04-05T21:32:30.294Z,100208.64
2019-04-05T21:35:02.547Z,100207.91
2019-04-05T21:37:32.736Z,100212.55
2019-04-05T21:40:02.680Z,100205.12
2019-04-05T21:42:32.688Z,100200.66
2019-04-05T21:45:02.560Z,100198.41
2019-04-05T21:47:32.429Z,100203.77
2019-04-05T21:50:02.653Z,100204.16
2019-04-05T21:52:32.529Z,100201.55
2019-04-05T21:55:02.617Z,100206.19
2019-04-05T21:57:32.716Z,100200.25
2019-04-05T22:00:03.052Z,100206.59
2019-04-05T22:02:34.558Z,100210.60
2019-04-05T22:05:06.647Z,100213.60
2019-04-05T22:07:36.529Z,100215.25
2019-04-05T22:10:06.778Z,100206.59
2019-04-05T22:12:37.550Z,100205.16
2019-04-05T22:15:07.876Z,100200.94
2019-04-05T22:17:38.132Z,100197.77
2019-04-05T22:20:09.802Z,100194.13
2019-04-05T22:22:39.934Z,100196.39
2019-04-05T22:25:09.889Z,100193.86
2019-04-05T22:27:40.085Z,100196.30
2019-04-05T22:30:10.788Z,100192.91
2019-04-05T22:32:40.783Z,100190.41
2019-04-05T22:35:10.813Z,100182.39
2019-04-05T22:37:40.816Z,100183.51
2019-04-05T22:40:11.134Z,100171.23
2019-04-05T22:42:41.058Z,100166.59
2019-04-05T22:45:11.438Z,100167.33
2019-04-05T22:47:41.732Z,100161.17
2019-04-05T22:50:12.181Z,100156.13
2019-04-05T22:52:42.283Z,100156.39
2019-04-05T22:55:12.621Z,100139.18
2019-04-05T22:57:42.870Z,100139.18
2019-04-05T23:00:12.886Z,100143.55
2019-04-05T23:02:44.698Z,100143.08
2019-04-05T23:05:15.305Z,100142.24
2019-04-05T23:07:45.378Z,100142.70
2019-04-05T23:10:16.416Z,100141.41
2019-04-05T23:12:46.468Z,100148.48
2019-04-05T23:15:16.728Z,100149.70
2019-04-05T23:17:46.709Z,100143.27
2019-04-05T23:20:17.352Z,100141.16
2019-04-05T23:22:47.980Z,100141.34
2019-04-05T23:25:22.155Z,100148.64
2019-04-05T23:27:49.583Z,100144.60
2019-04-05T23:30:20.754Z,100153.38
2019-04-05T23:32:50.643Z,100148.02
2019-04-05T23:35:20.819Z,100153.61
2019-04-05T23:37:50.720Z,100152.82
2019-04-05T23:40:20.959Z,100158.03
2019-04-05T23:42:50.847Z,100152.48
2019-04-05T23:45:21.079Z,100146.55
2019-04-05T23:47:50.966Z,100152.66
2019-04-05T23:50:21.426Z,100154.80
2019-04-05T23:52:51.635Z,100165.77
2019-04-05T23:55:32.507Z,100159.55
2019-04-05T23:57:53.453Z,100153.83
